createdAt,value
2022-10-15T00:04:05.352Z,23.38
2022-10-15T00:06:32.737Z,23.40
2022-10-15T00:10:15.986Z,21.70
2022-10-15T00:12:43.543Z,22.15
2022-10-15T00:15:36.857Z,23.13
2022-10-15T00:18:03.547Z,23.42
2022-10-15T00:20:34.435Z,23.48
2022-10-15T00:23:01.100Z,22.90
2022-10-15T00:25:28.216Z,23.42
2022-10-15T00:28:45.233Z,22.23
2022-10-15T00:31:15.787Z,23.42
2022-10-15T00:33:44.331Z,25.00
2022-10-15T00:36:37.343Z,24.13
2022-10-15T00:39:06.120Z,23.98
2022-10-15T00:42:05.752Z,23.52
2022-10-15T00:44:32.445Z,23.52
2022-10-15T00:47:04.983Z,24.63
2022-10-15T00:49:35.520Z,24.05
2022-10-15T00:52:37.005Z,26.40
2022-10-15T00:55:13.517Z,24.92
2022-10-15T00:57:41.468Z,25.95
2022-10-15T01:00:11.590Z,24.90
2022-10-15T01:02:39.755Z,25.55
2022-10-15T01:05:07.744Z,25.50
2022-10-15T01:08:15.331Z,25.27
2022-10-15T01:11:03.756Z,23.50
2022-10-15T01:16:29.027Z,24.95
2022-10-15T01:19:33.736Z,26.30
2022-10-15T01:22:21.172Z,23.85
2022-10-15T01:25:00.066Z,25.15
2022-10-15T01:27:34.181Z,24.95
2022-10-15T01:30:22.245Z,24.35
2022-10-15T01:32:56.508Z,23.98
2022-10-15T01:35:40.386Z,25.33
2022-10-15T01:41:47.205Z,22.80
2022-10-15T01:44:21.826Z,23.65
2022-10-15T01:50:22.986Z,23.90
2022-10-15T01:52:51.723Z,24.38
2022-10-15T01:55:23.169Z,24.17
2022-10-15T01:58:32.164Z,23.23
2022-10-15T02:00:59.586Z,22.60
2022-10-15T02:04:00.743Z,24.17
2022-10-15T02:06:40.179Z,22.95
2022-10-15T02:12:37.801Z,23.77
2022-10-15T02:18:47.288Z,22.40
2022-10-15T02:21:53.811Z,23.52
2022-10-15T02:24:25.285Z,22.02
2022-10-15T02:26:55.634Z,21.75
2022-10-15T02:29:27.028Z,21.50
2022-10-15T02:31:57.121Z,21.60
2022-10-15T02:34:50.072Z,22.30
2022-10-15T02:37:20.609Z,22.02
2022-10-15T02:39:47.341Z,24.20
2022-10-15T02:42:18.734Z,22.33
2022-10-15T02:44:45.616Z,22.75
2022-10-15T02:47:12.592Z,22.25
2022-10-15T02:49:39.565Z,24.25
2022-10-15T02:52:06.507Z,23.90
2022-10-15T02:54:38.250Z,22.63
2022-10-15T02:57:04.956Z,25.40
2022-10-15T02:59:31.605Z,23.52
2022-10-15T03:01:58.377Z,23.08
2022-10-15T03:04:25.030Z,23.17
2022-10-15T03:09:35.592Z,23.45
2022-10-15T03:12:26.818Z,24.83
2022-10-15T03:14:54.168Z,23.83
2022-10-15T03:17:24.555Z,23.00
2022-10-15T03:19:51.532Z,22.98
2022-10-15T03:22:27.505Z,24.60
2022-10-15T03:25:10.166Z,24.63
2022-10-15T03:27:36.787Z,23.67
2022-10-15T03:33:34.670Z,24.60
2022-10-15T03:36:02.574Z,23.50
2022-10-15T03:38:29.224Z,25.08
2022-10-15T03:40:55.872Z,24.42
2022-10-15T03:43:28.270Z,23.02
2022-10-15T03:45:54.907Z,24.75
2022-10-15T03:48:21.786Z,24.63
2022-10-15T03:50:48.646Z,23.45
2022-10-15T03:53:15.472Z,24.65
2022-10-15T03:55:42.277Z,23.75
2022-10-15T03:58:08.941Z,23.23
2022-10-15T04:04:12.680Z,22.98
2022-10-15T04:15:32.693Z,24.05
2022-10-15T04:18:42.158Z,23.08
2022-10-15T04:21:09.680Z,22.15
2022-10-15T04:27:04.134Z,22.52
2022-10-15T04:32:47.309Z,23.20
2022-10-15T04:35:16.784Z,24.33
2022-10-15T04:38:21.770Z,22.88
2022-10-15T04:41:11.833Z,24.25
2022-10-15T04:43:40.577Z,23.27
2022-10-15T04:46:09.257Z,25.17
2022-10-15T04:48:40.458Z,24.23
2022-10-15T04:51:12.233Z,24.17
2022-10-15T04:53:47.919Z,23.80
2022-10-15T04:56:24.376Z,24.45
2022-10-15T04:59:15.712Z,24.95
2022-10-15T05:02:36.271Z,24.27
2022-10-15T05:05:05.364Z,23.88
2022-10-15T05:07:41.207Z,24.48
2022-10-15T05:10:08.333Z,24.52
2022-10-15T05:12:35.024Z,23.58
2022-10-15T05:15:05.191Z,24.55
2022-10-15T05:17:34.921Z,23.48
2022-10-15T05:22:44.877Z,24.25
2022-10-15T05:25:11.648Z,25.23
2022-10-15T05:27:44.421Z,24.00
2022-10-15T05:30:19.817Z,23.80
2022-10-15T05:32:46.558Z,23.27
2022-10-15T05:35:15.539Z,25.02
2022-10-15T05:38:12.007Z,25.60
2022-10-15T05:40:38.654Z,24.10
2022-10-15T05:43:05.346Z,24.65
2022-10-15T05:45:31.998Z,23.52
2022-10-15T05:47:58.614Z,24.77
2022-10-15T05:50:25.443Z,23.65
2022-10-15T05:52:55.230Z,24.08
2022-10-15T05:55:25.849Z,25.38
2022-10-15T05:57:52.789Z,23.13
2022-10-15T06:00:19.445Z,24.05
2022-10-15T06:03:18.054Z,23.40
2022-10-15T06:10:10.466Z,12.98
2022-10-15T06:21:37.857Z,11.07
2022-10-15T06:30:38.739Z,9.95
2022-10-15T06:33:05.564Z,10.45
2022-10-15T06:35:35.812Z,8.95
2022-10-15T06:50:19.457Z,7.43
2022-10-15T06:52:46.240Z,7.38
2022-10-15T06:55:34.269Z,7.72
2022-10-15T07:19:17.703Z,19.88
2022-10-15T07:25:31.670Z,20.17
2022-10-15T07:40:08.590Z,25.77
2022-10-15T07:45:48.182Z,27.58
2022-10-15T07:48:19.549Z,29.63
2022-10-15T08:12:08.059Z,29.92
2022-10-15T08:15:01.735Z,27.90
2022-10-15T08:52:42.762Z,25.30
2022-10-15T08:55:17.825Z,26.25
2022-10-15T08:58:14.843Z,25.17
2022-10-15T09:00:54.451Z,23.45
2022-10-15T09:13:44.372Z,25.58
2022-10-15T09:19:02.956Z,26.38
2022-10-15T09:30:39.769Z,24.50
2022-10-15T11:07:16.414Z,34.72
2022-10-15T11:33:51.943Z,32.58
2022-10-15T11:36:24.473Z,31.65
2022-10-15T11:45:57.421Z,29.23
2022-10-15T11:48:38.601Z,29.45
2022-10-15T11:51:22.953Z,31.67
2022-10-15T12:04:22.879Z,29.15
2022-10-15T12:06:55.674Z,29.60
2022-10-15T12:09:47.131Z,28.45
2022-10-15T12:22:42.196Z,29.73
2022-10-15T12:40:43.789Z,26.35
2022-10-15T13:01:00.875Z,27.13
2022-10-15T13:21:13.036Z,24.88
2022-10-15T13:30:53.729Z,25.70
2022-10-15T13:33:23.872Z,25.95
2022-10-15T13:35:50.796Z,25.45
2022-10-15T13:38:29.982Z,27.65
2022-10-15T13:51:00.585Z,28.08
2022-10-15T13:57:22.223Z,23.00
2022-10-15T14:03:14.837Z,25.63
2022-10-15T14:08:54.156Z,24.67
2022-10-15T14:29:12.483Z,23.83
2022-10-15T14:31:31.965Z,23.15
2022-10-15T14:55:23.832Z,24.33
2022-10-15T14:57:51.892Z,23.77
2022-10-15T15:04:30.984Z,23.55
2022-10-15T15:21:13.935Z,23.30
2022-10-15T15:54:22.148Z,21.92
2022-10-15T15:56:52.189Z,22.30
2022-10-15T15:59:23.692Z,22.77
2022-10-15T16:01:52.707Z,22.33
2022-10-15T16:04:22.673Z,22.83
2022-10-15T16:13:43.414Z,21.02
2022-10-15T16:20:22.962Z,21.42
2022-10-15T16:22:53.701Z,19.67
2022-10-15T16:25:24.215Z,22.65
2022-10-15T16:34:51.840Z,24.95
2022-10-15T16:58:23.357Z,21.25
2022-10-15T17:08:35.721Z,18.02
2022-10-15T17:11:02.973Z,19.17
2022-10-15T17:25:53.586Z,21.05
2022-10-15T18:10:08.528Z,22.48
2022-10-15T18:12:35.487Z,22.30
2022-10-15T18:15:35.273Z,22.15
2022-10-15T18:22:00.801Z,21.92
2022-10-15T18:24:41.853Z,24.83
2022-10-15T18:27:15.877Z,24.05
2022-10-15T18:34:10.533Z,21.92
2022-10-15T18:36:41.440Z,23.67
2022-10-15T18:39:08.403Z,25.30
2022-10-15T19:03:22.257Z,25.67
2022-10-15T19:11:27.347Z,25.20
2022-10-15T19:35:45.411Z,23.25
2022-10-15T19:50:13.557Z,19.40
2022-10-15T19:52:42.570Z,18.15
2022-10-15T20:24:05.491Z,22.33
2022-10-15T20:32:54.667Z,24.42
2022-10-15T20:42:31.638Z,22.50
2022-10-15T20:45:01.814Z,24.15
2022-10-15T20:47:28.721Z,22.50
2022-10-15T20:59:43.463Z,25.38
2022-10-15T21:05:15.246Z,24.00
2022-10-15T21:36:42.075Z,22.23
2022-10-15T21:39:41.879Z,20.85
2022-10-15T21:42:23.017Z,22.20
2022-10-15T21:52:22.539Z,19.60
2022-10-15T22:05:16.034Z,21.25
2022-10-15T22:08:14.392Z,21.77
2022-10-15T22:17:04.094Z,21.65
2022-10-15T22:19:34.005Z,21.50
2022-10-15T22:33:18.033Z,24.23
2022-10-15T22:35:44.802Z,24.13
2022-10-15T22:38:41.684Z,22.50
2022-10-15T22:41:14.607Z,22.88
2022-10-15T22:43:46.474Z,23.38
2022-10-15T22:46:14.138Z,24.45
2022-10-15T22:48:45.061Z,23.13
2022-10-15T22:51:14.110Z,22.80
2022-10-15T22:53:58.469Z,21.48
2022-10-15T23:07:05.340Z,20.88
2022-10-15T23:09:35.288Z,21.00
2022-10-15T23:12:23.448Z,21.85
2022-10-15T23:14:50.657Z,22.08
2022-10-15T23:23:13.616Z,21.52
2022-10-15T23:37:21.918Z,22.35
2022-10-15T23:39:53.863Z,21.50
2022-10-15T23:42:32.507Z,21.63
